sensor_id;sensor_type;location;lat;lon;timestamp;P1;durP1;ratioP1;P2;durP2;ratioP2
25153;SDS011;47555;51.038;6.280;2023-03-04T17:27:43;8.20;;;5.70;;
25153;SDS011;47555;51.038;6.280;2023-03-04T17:30:10;8.50;;;5.07;;
25153;SDS011;47555;51.038;6.280;2023-03-04T17:32:36;6.15;;;4.97;;
25153;SDS011;47555;51.038;6.280;2023-03-04T17:35:03;11.52;;;5.32;;
25153;SDS011;47555;51.038;6.280;2023-03-04T17:37:30;8.50;;;5.50;;
25153;SDS011;47555;51.038;6.280;2023-03-04T17:39:56;9.77;;;5.60;;
25153;SDS011;47555;51.038;6.280;2023-03-04T17:42:21;7.65;;;4.43;;
25153;SDS011;47555;51.038;6.280;2023-03-04T17:44:47;7.10;;;5.18;;
25153;SDS011;47555;51.038;6.280;2023-03-04T17:47:12;7.72;;;6.00;;
25153;SDS011;47555;51.038;6.280;2023-03-04T17:49:39;8.40;;;5.78;;
25153;SDS011;47555;51.038;6.280;2023-03-04T17:52:04;11.02;;;5.97;;
25153;SDS011;47555;51.038;6.280;2023-03-04T17:54:30;8.95;;;6.65;;
25153;SDS011;47555;51.038;6.280;2023-03-04T17:56:55;10.02;;;7.50;;
25153;SDS011;47555;51.038;6.280;2023-03-04T17:59:21;10.18;;;8.00;;
25153;SDS011;47555;51.038;6.280;2023-03-04T18:01:48;9.13;;;6.28;;
25153;SDS011;47555;51.038;6.280;2023-03-04T18:04:14;8.82;;;5.53;;
25153;SDS011;47555;51.038;6.280;2023-03-04T18:06:40;9.80;;;5.38;;
25153;SDS011;47555;51.038;6.280;2023-03-04T18:09:06;7.65;;;4.10;;
25153;SDS011;47555;51.038;6.280;2023-03-04T18:11:33;9.52;;;4.35;;
25153;SDS011;47555;51.038;6.280;2023-03-04T18:14:00;4.25;;;3.10;;
25153;SDS011;47555;51.038;6.280;2023-03-04T18:16:26;3.85;;;2.95;;
25153;SDS011;47555;51.038;6.280;2023-03-04T18:18:53;3.50;;;2.95;;
25153;SDS011;47555;51.038;6.280;2023-03-04T18:21:21;5.55;;;2.50;;
25153;SDS011;47555;51.038;6.280;2023-03-04T18:23:47;5.05;;;2.80;;
25153;SDS011;47555;51.038;6.280;2023-03-04T18:26:13;5.22;;;2.15;;
25153;SDS011;47555;51.038;6.280;2023-03-04T18:28:39;5.63;;;2.20;;
25153;SDS011;47555;51.038;6.280;2023-03-04T18:31:04;5.70;;;2.20;;
25153;SDS011;47555;51.038;6.280;2023-03-04T18:33:30;3.80;;;1.65;;
25153;SDS011;47555;51.038;6.280;2023-03-04T18:36:00;5.43;;;2.22;;
25153;SDS011;47555;51.038;6.280;2023-03-04T18:38:27;8.07;;;2.75;;
25153;SDS011;47555;51.038;6.280;2023-03-04T18:41:00;5.38;;;1.77;;
25153;SDS011;47555;51.038;6.280;2023-03-04T18:43:28;4.43;;;1.67;;
25153;SDS011;47555;51.038;6.280;2023-03-04T18:45:58;1.73;;;1.40;;
25153;SDS011;47555;51.038;6.280;2023-03-04T18:48:31;2.13;;;1.40;;
25153;SDS011;47555;51.038;6.280;2023-03-04T18:50:59;3.47;;;1.40;;
25153;SDS011;47555;51.038;6.280;2023-03-04T18:53:28;3.42;;;1.25;;
25153;SDS011;47555;51.038;6.280;2023-03-04T18:55:55;2.83;;;1.70;;
25153;SDS011;47555;51.038;6.280;2023-03-04T19:00:53;5.68;;;2.03;;
25153;SDS011;47555;51.038;6.280;2023-03-04T19:03:19;5.78;;;2.15;;
25153;SDS011;47555;51.038;6.280;2023-03-04T19:05:44;5.95;;;2.20;;
25153;SDS011;47555;51.038;6.280;2023-03-04T19:08:10;5.80;;;2.20;;
25153;SDS011;47555;51.038;6.280;2023-03-04T19:10:35;2.00;;;1.80;;
25153;SDS011;47555;51.038;6.280;2023-03-04T19:13:01;5.05;;;2.05;;
25153;SDS011;47555;51.038;6.280;2023-03-04T19:15:27;3.17;;;1.80;;
25153;SDS011;47555;51.038;6.280;2023-03-04T19:17:53;4.40;;;1.45;;
25153;SDS011;47555;51.038;6.280;2023-03-04T19:20:21;8.38;;;1.80;;
25153;SDS011;47555;51.038;6.280;2023-03-04T19:22:46;3.25;;;1.83;;
25153;SDS011;47555;51.038;6.280;2023-03-04T19:25:12;4.43;;;1.55;;
25153;SDS011;47555;51.038;6.280;2023-03-04T19:27:38;3.13;;;1.60;;
25153;SDS011;47555;51.038;6.280;2023-03-04T19:30:04;3.45;;;1.67;;
25153;SDS011;47555;51.038;6.280;2023-03-04T19:32:30;8.23;;;1.80;;
25153;SDS011;47555;51.038;6.280;2023-03-04T19:34:56;4.03;;;1.58;;
25153;SDS011;47555;51.038;6.280;2023-03-04T19:37:22;5.32;;;1.58;;
25153;SDS011;47555;51.038;6.280;2023-03-04T19:39:47;4.57;;;1.83;;
25153;SDS011;47555;51.038;6.280;2023-03-04T19:42:13;5.75;;;2.10;;
25153;SDS011;47555;51.038;6.280;2023-03-04T19:44:39;6.97;;;1.38;;
25153;SDS011;47555;51.038;6.280;2023-03-04T19:47:05;5.20;;;1.75;;
25153;SDS011;47555;51.038;6.280;2023-03-04T19:49:31;2.30;;;1.27;;
25153;SDS011;47555;51.038;6.280;2023-03-04T19:51:57;2.33;;;1.40;;
25153;SDS011;47555;51.038;6.280;2023-03-04T19:54:23;3.38;;;1.30;;
25153;SDS011;47555;51.038;6.280;2023-03-04T19:56:48;7.63;;;1.70;;
25153;SDS011;47555;51.038;6.280;2023-03-04T19:59:14;1.98;;;1.25;;
25153;SDS011;47555;51.038;6.280;2023-03-04T20:01:40;3.92;;;1.50;;
25153;SDS011;47555;51.038;6.280;2023-03-04T20:04:07;1.83;;;1.33;;
25153;SDS011;47555;51.038;6.280;2023-03-04T20:06:35;2.88;;;1.42;;
25153;SDS011;47555;51.038;6.280;2023-03-04T20:09:08;5.22;;;1.52;;
25153;SDS011;47555;51.038;6.280;2023-03-04T20:11:35;4.10;;;1.83;;
25153;SDS011;47555;51.038;6.280;2023-03-04T20:14:01;2.85;;;1.50;;
25153;SDS011;47555;51.038;6.280;2023-03-04T20:16:28;3.08;;;1.40;;
25153;SDS011;47555;51.038;6.280;2023-03-04T20:18:54;7.85;;;1.63;;
25153;SDS011;47555;51.038;6.280;2023-03-04T20:21:29;5.88;;;1.85;;
25153;SDS011;47555;51.038;6.280;2023-03-04T20:23:57;3.53;;;1.23;;
25153;SDS011;47555;51.038;6.280;2023-03-04T20:26:24;4.55;;;1.17;;
25153;SDS011;47555;51.038;6.280;2023-03-04T20:28:50;4.18;;;1.02;;
25153;SDS011;47555;51.038;6.280;2023-03-04T20:33:45;6.25;;;1.13;;
25153;SDS011;47555;51.038;6.280;2023-03-04T20:36:15;3.70;;;1.40;;
25153;SDS011;47555;51.038;6.280;2023-03-04T20:38:41;3.00;;;1.42;;
25153;SDS011;47555;51.038;6.280;2023-03-04T20:41:07;2.03;;;1.40;;
25153;SDS011;47555;51.038;6.280;2023-03-04T20:43:32;2.22;;;1.27;;
25153;SDS011;47555;51.038;6.280;2023-03-04T20:49:16;3.38;;;1.38;;
25153;SDS011;47555;51.038;6.280;2023-03-04T20:51:46;2.33;;;1.23;;
25153;SDS011;47555;51.038;6.280;2023-03-04T20:54:12;3.00;;;1.27;;
25153;SDS011;47555;51.038;6.280;2023-03-04T20:56:37;3.28;;;1.27;;
25153;SDS011;47555;51.038;6.280;2023-03-04T20:59:04;2.35;;;1.25;;
25153;SDS011;47555;51.038;6.280;2023-03-04T21:01:32;4.53;;;1.30;;
25153;SDS011;47555;51.038;6.280;2023-03-04T21:03:58;2.60;;;1.33;;
25153;SDS011;47555;51.038;6.280;2023-03-04T21:06:24;2.75;;;1.33;;
25153;SDS011;47555;51.038;6.280;2023-03-04T21:08:52;2.10;;;1.65;;
25153;SDS011;47555;51.038;6.280;2023-03-04T21:11:17;2.63;;;1.52;;
25153;SDS011;47555;51.038;6.280;2023-03-04T21:13:43;2.28;;;1.10;;
25153;SDS011;47555;51.038;6.280;2023-03-04T21:16:10;3.28;;;1.75;;
25153;SDS011;47555;51.038;6.280;2023-03-04T21:18:36;3.40;;;1.60;;
25153;SDS011;47555;51.038;6.280;2023-03-04T21:21:07;3.65;;;1.60;;
25153;SDS011;47555;51.038;6.280;2023-03-04T21:23:46;2.47;;;1.50;;
25153;SDS011;47555;51.038;6.280;2023-03-04T21:26:16;1.58;;;1.48;;
25153;SDS011;47555;51.038;6.280;2023-03-04T21:28:42;3.42;;;1.58;;
25153;SDS011;47555;51.038;6.280;2023-03-04T21:31:12;4.32;;;1.40;;
25153;SDS011;47555;51.038;6.280;2023-03-04T21:33:43;4.57;;;1.35;;
25153;SDS011;47555;51.038;6.280;2023-03-04T21:36:10;2.33;;;1.50;;
25153;SDS011;47555;51.038;6.280;2023-03-04T21:38:37;4.07;;;1.60;;
25153;SDS011;47555;51.038;6.280;2023-03-04T21:41:10;3.88;;;1.30;;
25153;SDS011;47555;51.038;6.280;2023-03-04T21:43:43;3.65;;;1.45;;
25153;SDS011;47555;51.038;6.280;2023-03-04T21:46:10;7.25;;;1.63;;
25153;SDS011;47555;51.038;6.280;2023-03-04T21:48:36;2.08;;;1.13;;
25153;SDS011;47555;51.038;6.280;2023-03-04T21:51:03;3.63;;;1.63;;
25153;SDS011;47555;51.038;6.280;2023-03-04T21:53:33;3.88;;;1.52;;
25153;SDS011;47555;51.038;6.280;2023-03-04T21:55:59;3.45;;;1.65;;
25153;SDS011;47555;51.038;6.280;2023-03-04T21:58:25;7.60;;;2.03;;
25153;SDS011;47555;51.038;6.280;2023-03-04T22:00:51;7.65;;;1.98;;
25153;SDS011;47555;51.038;6.280;2023-03-04T22:03:17;6.93;;;1.58;;
25153;SDS011;47555;51.038;6.280;2023-03-04T22:05:44;6.53;;;1.98;;
25153;SDS011;47555;51.038;6.280;2023-03-04T22:08:11;7.95;;;2.10;;
25153;SDS011;47555;51.038;6.280;2023-03-04T22:10:39;2.58;;;1.77;;
25153;SDS011;47555;51.038;6.280;2023-03-04T22:13:06;6.82;;;2.33;;
25153;SDS011;47555;51.038;6.280;2023-03-04T22:15:33;2.75;;;1.80;;
25153;SDS011;47555;51.038;6.280;2023-03-04T22:18:00;6.35;;;2.10;;
25153;SDS011;47555;51.038;6.280;2023-03-04T22:20:26;4.22;;;1.70;;
25153;SDS011;47555;51.038;6.280;2023-03-04T22:22:52;6.00;;;2.38;;
25153;SDS011;47555;51.038;6.280;2023-03-04T22:25:17;5.13;;;1.90;;
25153;SDS011;47555;51.038;6.280;2023-03-04T22:27:43;4.35;;;1.38;;
25153;SDS011;47555;51.038;6.280;2023-03-04T22:30:11;3.88;;;1.80;;
25153;SDS011;47555;51.038;6.280;2023-03-04T22:32:40;4.45;;;1.67;;
25153;SDS011;47555;51.038;6.280;2023-03-04T22:35:08;4.18;;;1.75;;
25153;SDS011;47555;51.038;6.280;2023-03-04T22:37:34;8.40;;;2.00;;
25153;SDS011;47555;51.038;6.280;2023-03-04T22:40:00;4.90;;;1.95;;
25153;SDS011;47555;51.038;6.280;2023-03-04T22:42:26;6.97;;;1.83;;
25153;SDS011;47555;51.038;6.280;2023-03-04T22:44:53;5.03;;;1.70;;
25153;SDS011;47555;51.038;6.280;2023-03-04T22:47:19;4.57;;;1.70;;
25153;SDS011;47555;51.038;6.280;2023-03-04T22:49:46;4.70;;;1.73;;
25153;SDS011;47555;51.038;6.280;2023-03-04T22:52:12;6.53;;;2.80;;
25153;SDS011;47555;51.038;6.280;2023-03-04T22:54:38;7.63;;;1.95;;
25153;SDS011;47555;51.038;6.280;2023-03-04T22:57:03;6.03;;;1.60;;
25153;SDS011;47555;51.038;6.280;2023-03-04T22:59:29;5.15;;;1.70;;
25153;SDS011;47555;51.038;6.280;2023-03-04T23:01:54;6.18;;;1.77;;
25153;SDS011;47555;51.038;6.280;2023-03-04T23:04:21;4.25;;;1.70;;
25153;SDS011;47555;51.038;6.280;2023-03-04T23:06:47;5.20;;;1.67;;
25153;SDS011;47555;51.038;6.280;2023-03-04T23:09:12;4.78;;;1.60;;
25153;SDS011;47555;51.038;6.280;2023-03-04T23:11:38;5.50;;;1.48;;
25153;SDS011;47555;51.038;6.280;2023-03-04T23:14:04;6.72;;;1.60;;
25153;SDS011;47555;51.038;6.280;2023-03-04T23:16:32;4.60;;;1.67;;
25153;SDS011;47555;51.038;6.280;2023-03-04T23:19:03;3.13;;;1.60;;
25153;SDS011;47555;51.038;6.280;2023-03-04T23:21:29;4.80;;;1.80;;
25153;SDS011;47555;51.038;6.280;2023-03-04T23:23:58;4.35;;;1.67;;
25153;SDS011;47555;51.038;6.280;2023-03-04T23:26:27;6.65;;;1.42;;
25153;SDS011;47555;51.038;6.280;2023-03-04T23:28:56;4.03;;;1.60;;
25153;SDS011;47555;51.038;6.280;2023-03-04T23:31:25;8.40;;;1.50;;
25153;SDS011;47555;51.038;6.280;2023-03-04T23:33:52;2.35;;;1.23;;
25153;SDS011;47555;51.038;6.280;2023-03-04T23:36:22;2.97;;;1.65;;
25153;SDS011;47555;51.038;6.280;2023-03-04T23:38:59;4.57;;;1.50;;
25153;SDS011;47555;51.038;6.280;2023-03-04T23:41:26;5.82;;;1.30;;
25153;SDS011;47555;51.038;6.280;2023-03-04T23:43:54;3.03;;;1.25;;
25153;SDS011;47555;51.038;6.280;2023-03-04T23:46:21;2.42;;;1.10;;
25153;SDS011;47555;51.038;6.280;2023-03-04T23:48:47;2.03;;;1.17;;
25153;SDS011;47555;51.038;6.280;2023-03-04T23:51:14;2.50;;;1.15;;
25153;SDS011;47555;51.038;6.280;2023-03-04T23:53:42;2.97;;;1.30;;
25153;SDS011;47555;51.038;6.280;2023-03-04T23:56:08;3.17;;;1.50;;
25153;SDS011;47555;51.038;6.280;2023-03-04T23:58:34;5.88;;;1.45;;
